createdAt,value
2022-11-28T00:00:08.356Z,72.03
2022-11-28T00:01:22.352Z,78.03
2022-11-28T00:02:25.096Z,78.40
2022-11-28T00:03:27.987Z,78.47
2022-11-28T00:04:30.740Z,69.10
2022-11-28T00:05:35.941Z,67.03
2022-11-28T00:06:41.186Z,71.22
2022-11-28T00:07:44.035Z,74.93
2022-11-28T00:08:47.131Z,74.80
2022-11-28T00:09:49.754Z,71.38
2022-11-28T00:10:52.369Z,73.40
2022-11-28T00:11:55.094Z,74.43
2022-11-28T00:12:57.800Z,68.05
2022-11-28T00:14:00.715Z,74.05
2022-11-28T00:15:04.892Z,86.35
2022-11-28T00:16:09.559Z,74.07
2022-11-28T00:17:12.191Z,69.63
2022-11-28T00:18:15.022Z,73.88
2022-11-28T00:19:17.684Z,81.35
2022-11-28T00:20:20.439Z,73.93
2022-11-28T00:21:23.506Z,72.40
2022-11-28T00:22:29.323Z,76.07
2022-11-28T00:23:33.211Z,75.60
2022-11-28T00:24:35.798Z,83.03
2022-11-28T00:25:38.490Z,72.30
2022-11-28T00:26:42.315Z,78.43
2022-11-28T00:27:45.443Z,71.07
2022-11-28T00:28:49.091Z,75.03
2022-11-28T00:29:51.754Z,71.75
2022-11-28T00:30:54.616Z,67.97
2022-11-28T00:31:57.352Z,74.25
2022-11-28T00:33:00.060Z,77.10
2022-11-28T00:34:03.463Z,78.60
2022-11-28T00:35:06.601Z,76.45
2022-11-28T00:36:09.669Z,76.50
2022-11-28T00:37:12.336Z,80.78
2022-11-28T00:38:14.947Z,75.75
2022-11-28T00:39:17.998Z,74.53
2022-11-28T00:40:20.603Z,76.82
2022-11-28T00:41:25.779Z,81.25
2022-11-28T00:42:28.580Z,74.93
2022-11-28T00:43:31.721Z,79.13
2022-11-28T00:44:34.358Z,76.90
2022-11-28T00:45:37.134Z,80.47
2022-11-28T00:46:40.103Z,69.18
2022-11-28T00:47:42.694Z,72.25
2022-11-28T00:48:45.799Z,75.10
2022-11-28T00:49:48.467Z,81.18
2022-11-28T00:50:51.614Z,77.13
2022-11-28T00:51:54.347Z,82.38
2022-11-28T00:52:57.023Z,73.65
2022-11-28T00:54:01.645Z,76.75
2022-11-28T00:55:04.554Z,73.50
2022-11-28T00:56:08.460Z,74.72
2022-11-28T00:57:11.115Z,71.57
2022-11-28T00:58:13.805Z,72.72
2022-11-28T00:59:16.496Z,77.90
2022-11-28T01:00:19.697Z,79.82
2022-11-28T01:01:28.745Z,71.03
2022-11-28T01:02:32.690Z,74.38
2022-11-28T01:03:35.525Z,77.22
2022-11-28T01:04:38.216Z,74.60
2022-11-28T01:05:43.285Z,67.03
2022-11-28T01:06:47.992Z,67.68
2022-11-28T01:07:50.731Z,67.25
2022-11-28T01:08:54.173Z,68.57
2022-11-28T01:09:56.899Z,70.00
2022-11-28T01:10:59.898Z,71.68
2022-11-28T01:12:02.803Z,71.18
2022-11-28T01:13:05.511Z,71.97
2022-11-28T01:14:08.556Z,60.35
2022-11-28T01:15:12.894Z,65.10
2022-11-28T01:16:16.078Z,63.60
2022-11-28T01:17:18.867Z,61.95
2022-11-28T01:18:21.547Z,66.65
2022-11-28T01:19:24.189Z,61.78
2022-11-28T01:20:26.806Z,63.70
2022-11-28T01:21:29.590Z,63.60
2022-11-28T01:22:32.485Z,81.57
2022-11-28T01:23:35.781Z,76.85
2022-11-28T01:24:38.426Z,78.38
2022-11-28T01:25:41.095Z,83.15
2022-11-28T01:26:43.877Z,79.68
2022-11-28T01:27:46.623Z,80.45
2022-11-28T01:28:49.311Z,76.70
2022-11-28T01:29:52.219Z,70.68
2022-11-28T01:30:54.871Z,72.07
2022-11-28T01:31:57.800Z,84.40
2022-11-28T01:33:00.473Z,79.38
2022-11-28T01:34:03.206Z,73.68
2022-11-28T01:35:06.056Z,74.82
2022-11-28T01:36:09.788Z,74.95
2022-11-28T01:37:12.405Z,75.50
2022-11-28T01:38:15.098Z,74.97
2022-11-28T01:39:17.838Z,76.65
2022-11-28T01:40:20.623Z,71.38
2022-11-28T01:41:25.900Z,78.45
2022-11-28T01:42:28.581Z,72.45
2022-11-28T01:43:31.805Z,76.22
2022-11-28T01:44:34.459Z,73.18
2022-11-28T01:45:38.669Z,76.82
2022-11-28T01:46:41.861Z,78.63
2022-11-28T01:47:45.329Z,73.55
2022-11-28T01:48:48.016Z,73.82
2022-11-28T01:49:50.887Z,79.60
2022-11-28T01:50:58.730Z,79.43
2022-11-28T01:52:08.213Z,70.15
2022-11-28T01:53:11.090Z,78.57
2022-11-28T01:54:15.276Z,71.50
2022-11-28T01:55:21.940Z,74.22
2022-11-28T01:56:27.662Z,79.25
2022-11-28T01:57:30.624Z,71.05
2022-11-28T01:58:35.317Z,77.50
2022-11-28T01:59:42.050Z,73.93
2022-11-28T02:00:44.861Z,71.13
2022-11-28T02:01:47.663Z,74.80
2022-11-28T02:02:54.912Z,71.80
2022-11-28T02:03:58.574Z,82.55
2022-11-28T02:05:01.820Z,75.70
2022-11-28T02:06:04.876Z,77.65
2022-11-28T02:07:07.589Z,77.15
2022-11-28T02:08:10.376Z,76.57
2022-11-28T02:09:15.188Z,71.00
2022-11-28T02:10:22.066Z,78.13
2022-11-28T02:11:52.240Z,78.35
2022-11-28T02:13:13.774Z,73.22
2022-11-28T02:15:00.321Z,76.07
2022-11-28T02:16:11.037Z,74.75
2022-11-28T02:18:36.133Z,68.18
2022-11-28T02:19:57.707Z,75.32
2022-11-28T02:21:36.353Z,74.03
2022-11-28T02:22:53.932Z,81.97
2022-11-28T02:24:20.719Z,77.80
2022-11-28T02:26:13.887Z,73.72
2022-11-28T02:27:35.332Z,78.25
2022-11-28T02:28:49.462Z,76.28
2022-11-28T02:30:24.634Z,75.38
2022-11-28T02:31:53.366Z,76.82
2022-11-28T02:33:19.541Z,74.47
2022-11-28T02:34:48.831Z,73.28
2022-11-28T02:36:14.467Z,79.10
2022-11-28T02:37:28.529Z,80.97
2022-11-28T02:39:06.401Z,80.15
2022-11-28T02:40:39.958Z,79.13
2022-11-28T02:41:46.904Z,81.38
2022-11-28T02:43:01.390Z,80.18
2022-11-28T02:44:26.398Z,77.78
2022-11-28T02:46:02.750Z,76.50
2022-11-28T02:47:06.361Z,72.07
2022-11-28T02:48:36.458Z,73.45
2022-11-28T02:49:47.304Z,82.00
2022-11-28T02:51:01.552Z,75.25
2022-11-28T02:52:09.882Z,74.82
2022-11-28T02:53:15.649Z,72.00
2022-11-28T02:54:21.262Z,70.30
2022-11-28T02:55:24.696Z,72.32
2022-11-28T02:56:27.326Z,78.45
2022-11-28T02:57:41.608Z,70.50
2022-11-28T02:58:44.270Z,69.20
2022-11-28T02:59:49.696Z,68.68
2022-11-28T03:00:52.664Z,69.80
2022-11-28T03:01:55.421Z,80.72
2022-11-28T03:03:23.154Z,74.95
2022-11-28T03:04:36.637Z,71.60
2022-11-28T03:06:00.548Z,68.07
2022-11-28T03:07:22.027Z,65.82
2022-11-28T03:08:54.673Z,63.33
2022-11-28T03:10:06.526Z,67.28
2022-11-28T03:11:23.444Z,69.05
2022-11-28T03:12:31.952Z,72.55
2022-11-28T03:13:41.994Z,80.97
2022-11-28T03:15:01.172Z,81.75
2022-11-28T03:16:29.620Z,68.18
2022-11-28T03:17:39.863Z,72.80
2022-11-28T03:19:11.199Z,71.80
2022-11-28T03:20:44.370Z,73.70
2022-11-28T03:22:10.764Z,72.20
2022-11-28T03:23:36.813Z,71.47
2022-11-28T03:25:02.474Z,68.70
2022-11-28T03:26:12.057Z,78.45
2022-11-28T03:28:06.660Z,72.03
2022-11-28T03:29:14.951Z,75.65
2022-11-28T03:30:33.031Z,67.13
2022-11-28T03:31:49.927Z,65.80
2022-11-28T03:32:55.138Z,69.18
2022-11-28T03:33:59.499Z,65.90
2022-11-28T03:35:18.497Z,74.43
2022-11-28T03:36:33.889Z,73.25
2022-11-28T03:37:43.645Z,69.47
2022-11-28T03:38:49.806Z,67.68
2022-11-28T03:39:57.454Z,73.15
2022-11-28T03:41:04.630Z,77.22
2022-11-28T03:42:10.962Z,73.20
2022-11-28T03:43:17.882Z,73.07
2022-11-28T03:44:31.768Z,76.00
2022-11-28T03:45:40.691Z,74.30
2022-11-28T03:46:47.798Z,76.50
2022-11-28T03:48:08.874Z,67.38
2022-11-28T03:49:12.228Z,64.38
2022-11-28T03:50:19.224Z,69.13
2022-11-28T03:51:49.831Z,72.82
2022-11-28T03:53:01.384Z,65.78
2022-11-28T03:54:11.458Z,65.78
2022-11-28T03:55:23.848Z,68.00
2022-11-28T03:56:40.687Z,66.20
2022-11-28T03:58:10.997Z,73.32
2022-11-28T03:59:20.428Z,69.43
2022-11-28T04:00:25.122Z,69.13
2022-11-28T04:01:32.687Z,72.60
2022-11-28T04:03:11.936Z,71.95
2022-11-28T04:04:19.289Z,76.90
2022-11-28T04:05:48.874Z,81.32
2022-11-28T04:07:29.079Z,89.40
2022-11-28T04:08:39.469Z,97.22
2022-11-28T04:09:47.124Z,91.63
2022-11-28T04:11:09.443Z,92.50
2022-11-28T04:12:34.911Z,86.05
2022-11-28T04:13:55.639Z,84.68
2022-11-28T04:15:04.789Z,81.53
2022-11-28T04:16:32.419Z,81.80
2022-11-28T04:17:53.228Z,94.35
2022-11-28T04:19:06.740Z,85.10
2022-11-28T04:20:36.741Z,95.03
2022-11-28T04:21:59.417Z,89.47
2022-11-28T04:23:09.648Z,93.30
2022-11-28T04:24:18.441Z,87.25
2022-11-28T04:25:22.764Z,92.40
2022-11-28T04:26:37.654Z,97.13
2022-11-28T04:27:47.879Z,101.28
2022-11-28T04:28:51.066Z,94.97
2022-11-28T04:29:56.872Z,105.40
2022-11-28T04:31:01.796Z,87.20
2022-11-28T04:32:05.765Z,95.50
2022-11-28T04:33:10.561Z,99.70
2022-11-28T04:34:17.468Z,91.22
2022-11-28T04:35:28.945Z,96.57
2022-11-28T04:36:32.965Z,105.18
2022-11-28T04:37:38.495Z,99.10
2022-11-28T04:38:41.838Z,91.45
2022-11-28T04:39:48.124Z,95.70
2022-11-28T04:41:19.945Z,98.90
2022-11-28T04:42:26.868Z,96.22
2022-11-28T04:43:33.549Z,104.85
2022-11-28T04:44:50.022Z,106.13
2022-11-28T04:46:15.279Z,98.00
2022-11-28T04:47:18.350Z,102.68
2022-11-28T04:48:21.133Z,96.75
2022-11-28T04:49:26.821Z,106.95
2022-11-28T04:50:34.569Z,110.82
2022-11-28T04:51:50.771Z,102.38
2022-11-28T04:52:59.211Z,89.60
2022-11-28T04:54:16.814Z,99.47
2022-11-28T04:55:25.419Z,103.72
2022-11-28T04:56:39.115Z,94.28
2022-11-28T04:57:41.766Z,109.55
2022-11-28T04:58:47.314Z,97.68
2022-11-28T04:59:50.235Z,93.05
2022-11-28T05:00:54.392Z,85.18
2022-11-28T05:01:58.707Z,95.85
2022-11-28T05:03:01.580Z,91.00
2022-11-28T05:04:04.336Z,98.10
2022-11-28T05:05:10.412Z,100.88
2022-11-28T05:06:25.976Z,97.63
2022-11-28T05:07:28.844Z,92.65
2022-11-28T05:08:31.580Z,92.93
2022-11-28T05:09:34.831Z,91.05
2022-11-28T05:10:37.529Z,101.78
2022-11-28T05:11:40.384Z,95.13
2022-11-28T05:12:43.076Z,89.47
2022-11-28T05:13:46.142Z,94.93
2022-11-28T05:14:48.825Z,96.18
2022-11-28T05:15:52.011Z,96.53
2022-11-28T05:16:54.713Z,89.13
2022-11-28T05:17:57.433Z,96.05
2022-11-28T05:19:00.258Z,98.72
2022-11-28T05:20:03.023Z,100.57
2022-11-28T05:21:09.376Z,103.68
2022-11-28T05:22:11.959Z,94.78
2022-11-28T05:23:14.634Z,93.68
2022-11-28T05:24:17.370Z,96.97
2022-11-28T05:25:20.280Z,92.90
2022-11-28T05:26:22.975Z,86.63
2022-11-28T05:27:25.793Z,92.57
2022-11-28T05:28:28.388Z,100.15
2022-11-28T05:29:31.220Z,94.95
2022-11-28T05:30:33.872Z,99.28
2022-11-28T05:31:37.683Z,87.13
2022-11-28T05:32:40.437Z,95.60
2022-11-28T05:33:43.143Z,89.78
2022-11-28T05:34:45.876Z,84.93
2022-11-28T05:35:48.785Z,91.53
2022-11-28T05:36:51.507Z,96.13
2022-11-28T05:37:54.136Z,102.75
2022-11-28T05:38:56.775Z,90.60
2022-11-28T05:39:59.346Z,95.40
2022-11-28T05:41:02.510Z,96.45
2022-11-28T05:42:05.339Z,88.55
2022-11-28T05:43:07.971Z,94.25
2022-11-28T05:44:10.776Z,91.47
2022-11-28T05:45:13.703Z,92.22
2022-11-28T05:46:17.009Z,100.85
2022-11-28T05:47:19.940Z,94.65
2022-11-28T05:48:23.352Z,88.32
2022-11-28T05:49:28.823Z,93.32
2022-11-28T05:50:35.693Z,96.05
2022-11-28T05:51:41.238Z,86.80
2022-11-28T05:52:43.883Z,96.10
2022-11-28T05:53:46.546Z,89.03
2022-11-28T05:54:49.237Z,83.38
2022-11-28T05:55:51.902Z,93.93
2022-11-28T05:56:54.626Z,93.18
2022-11-28T05:57:57.327Z,91.35
2022-11-28T05:59:00.028Z,81.32
2022-11-28T06:00:03.254Z,99.10
2022-11-28T06:01:20.495Z,89.25
2022-11-28T06:02:23.268Z,89.28
2022-11-28T06:03:25.900Z,82.93
2022-11-28T06:04:28.693Z,83.95
2022-11-28T06:05:46.972Z,80.40
2022-11-28T06:06:50.938Z,90.53
2022-11-28T06:07:53.673Z,83.40
2022-11-28T06:08:56.989Z,89.68
2022-11-28T06:09:59.772Z,85.10
2022-11-28T06:11:02.440Z,86.18
2022-11-28T06:12:05.605Z,81.97
2022-11-28T06:13:08.704Z,82.70
2022-11-28T06:14:11.750Z,95.10
2022-11-28T06:15:14.524Z,83.80
2022-11-28T06:16:20.295Z,87.90
2022-11-28T06:17:23.077Z,87.55
2022-11-28T06:18:25.849Z,81.90
2022-11-28T06:19:28.463Z,97.13
2022-11-28T06:20:31.131Z,78.50
2022-11-28T06:21:33.732Z,81.35
2022-11-28T06:22:36.475Z,84.88
2022-11-28T06:23:39.294Z,86.88
2022-11-28T06:24:42.129Z,82.18
2022-11-28T06:25:44.816Z,85.80
2022-11-28T06:26:47.543Z,84.40
2022-11-28T06:27:50.240Z,76.10
2022-11-28T06:28:55.485Z,85.80
2022-11-28T06:29:58.126Z,83.47
2022-11-28T06:31:01.049Z,87.05
2022-11-28T06:32:03.731Z,75.20
2022-11-28T06:33:06.468Z,81.45
2022-11-28T06:34:12.002Z,88.68
2022-11-28T06:35:14.843Z,89.32
2022-11-28T06:36:18.955Z,89.57
2022-11-28T06:37:21.652Z,91.70
2022-11-28T06:38:24.310Z,82.43
2022-11-28T06:39:26.988Z,84.70
2022-11-28T06:40:29.797Z,79.63
2022-11-28T06:41:32.460Z,89.05
2022-11-28T06:42:36.640Z,87.78
2022-11-28T06:43:40.216Z,88.28
2022-11-28T06:44:43.058Z,89.25
2022-11-28T06:45:45.755Z,85.10
2022-11-28T06:46:48.500Z,87.95
2022-11-28T06:47:51.152Z,96.32
2022-11-28T06:48:53.889Z,89.05
2022-11-28T06:49:56.807Z,100.90
2022-11-28T06:51:04.315Z,88.03
2022-11-28T06:52:06.918Z,84.85
2022-11-28T06:53:09.519Z,95.85
2022-11-28T06:54:12.325Z,85.90
2022-11-28T06:55:14.965Z,87.72
2022-11-28T06:56:19.767Z,91.13
2022-11-28T06:57:22.479Z,90.43
2022-11-28T06:58:25.114Z,79.43
2022-11-28T06:59:27.761Z,79.07
2022-11-28T07:00:31.208Z,80.05
2022-11-28T07:01:34.444Z,80.22
2022-11-28T07:02:37.351Z,85.03
2022-11-28T07:03:40.663Z,75.68
2022-11-28T07:04:43.399Z,78.60
2022-11-28T07:05:46.292Z,83.47
2022-11-28T07:06:48.991Z,73.32
2022-11-28T07:07:54.399Z,85.88
2022-11-28T07:08:58.646Z,91.60
2022-11-28T07:10:01.293Z,88.43
2022-11-28T07:11:24.474Z,82.82
2022-11-28T07:12:27.130Z,82.70
2022-11-28T07:13:29.766Z,89.93
2022-11-28T07:14:33.655Z,84.47
2022-11-28T07:15:36.484Z,91.75
2022-11-28T07:16:39.625Z,87.15
2022-11-28T07:17:42.352Z,85.53
2022-11-28T07:18:45.158Z,89.65
2022-11-28T07:19:53.496Z,99.90
2022-11-28T07:20:57.664Z,95.15
2022-11-28T07:22:00.786Z,92.65
2022-11-28T07:23:03.403Z,87.97
2022-11-28T07:24:06.392Z,87.60
2022-11-28T07:25:09.682Z,92.95
2022-11-28T07:26:14.144Z,90.85
2022-11-28T07:27:16.810Z,90.25
2022-11-28T07:28:23.096Z,84.22
2022-11-28T07:29:30.815Z,97.00
2022-11-28T07:30:33.509Z,85.30
2022-11-28T07:31:37.385Z,91.20
2022-11-28T07:32:41.162Z,84.22
2022-11-28T07:33:45.775Z,78.78
2022-11-28T07:34:50.274Z,85.63
2022-11-28T07:35:53.005Z,87.22
2022-11-28T07:36:55.688Z,80.55
2022-11-28T07:37:58.378Z,82.00
2022-11-28T07:39:02.573Z,88.80
2022-11-28T07:40:05.999Z,94.93
2022-11-28T07:41:12.270Z,87.18
2022-11-28T07:42:14.884Z,85.82
2022-11-28T07:43:18.980Z,86.90
2022-11-28T07:44:21.699Z,93.70
2022-11-28T07:45:32.983Z,93.18
2022-11-28T07:46:45.724Z,83.80
2022-11-28T07:47:48.699Z,81.53
2022-11-28T07:48:51.640Z,78.25
2022-11-28T07:49:54.507Z,93.20
2022-11-28T07:50:57.318Z,94.97
2022-11-28T07:52:00.349Z,87.30
2022-11-28T07:53:07.178Z,82.75
2022-11-28T07:54:10.373Z,86.72
2022-11-28T07:55:13.017Z,84.80
2022-11-28T07:56:20.767Z,89.55
2022-11-28T07:57:23.474Z,78.38
2022-11-28T07:58:26.135Z,82.75
2022-11-28T07:59:28.855Z,81.65
2022-11-28T08:00:32.533Z,78.13
2022-11-28T08:01:36.164Z,84.63
2022-11-28T08:02:39.376Z,80.68
2022-11-28T08:03:42.186Z,78.18
2022-11-28T08:04:50.497Z,73.18
2022-11-28T08:06:02.954Z,77.70
2022-11-28T08:07:05.893Z,74.50
2022-11-28T08:08:08.508Z,71.43
2022-11-28T08:09:14.136Z,78.13
2022-11-28T08:10:17.375Z,75.53
2022-11-28T08:11:21.699Z,79.10
2022-11-28T08:12:24.396Z,86.50
2022-11-28T08:13:27.474Z,75.47
2022-11-28T08:14:30.166Z,73.40
2022-11-28T08:15:32.885Z,78.70
2022-11-28T08:16:37.035Z,72.40
2022-11-28T08:17:40.203Z,72.47
2022-11-28T08:18:43.103Z,82.18
2022-11-28T08:19:45.783Z,74.47
2022-11-28T08:20:48.430Z,73.07
2022-11-28T08:21:51.117Z,83.85
2022-11-28T08:22:53.773Z,83.78
2022-11-28T08:23:59.927Z,83.60
2022-11-28T08:25:02.543Z,77.85
2022-11-28T08:26:07.629Z,90.35
2022-11-28T08:27:10.289Z,83.43
2022-11-28T08:28:13.002Z,83.35
2022-11-28T08:29:15.561Z,83.10
2022-11-28T08:30:18.449Z,80.10
2022-11-28T08:31:27.277Z,71.78
2022-11-28T08:32:30.599Z,76.35
2022-11-28T08:33:33.337Z,79.65
2022-11-28T08:34:36.257Z,73.97
2022-11-28T08:35:40.025Z,81.30
2022-11-28T08:36:43.541Z,80.30
2022-11-28T08:37:46.423Z,70.50
2022-11-28T08:39:03.349Z,75.22
2022-11-28T08:40:13.135Z,73.68
2022-11-28T08:41:20.922Z,75.95
2022-11-28T08:42:23.745Z,73.93
2022-11-28T08:43:26.571Z,71.15
2022-11-28T08:44:30.741Z,74.90
2022-11-28T08:45:34.830Z,61.67
2022-11-28T08:46:37.648Z,69.88
2022-11-28T08:47:40.264Z,71.03
2022-11-28T08:48:43.619Z,70.93
2022-11-28T08:49:46.354Z,68.00
2022-11-28T08:50:49.665Z,79.95
2022-11-28T08:51:52.287Z,69.90
2022-11-28T08:52:55.049Z,77.78
2022-11-28T08:53:59.613Z,82.03
2022-11-28T08:55:02.765Z,72.75
2022-11-28T08:56:05.793Z,73.95
2022-11-28T08:57:08.697Z,79.78
2022-11-28T08:58:12.325Z,79.85
2022-11-28T08:59:14.958Z,74.43
2022-11-28T09:00:17.893Z,86.38
2022-11-28T09:01:23.243Z,84.07
2022-11-28T09:02:26.320Z,86.38
2022-11-28T09:03:29.129Z,79.85
2022-11-28T09:04:32.023Z,87.60
2022-11-28T09:05:35.121Z,79.65
2022-11-28T09:06:41.022Z,67.93
2022-11-28T09:07:43.899Z,77.95
2022-11-28T09:08:47.278Z,75.28
2022-11-28T09:09:49.917Z,75.85
2022-11-28T09:10:52.486Z,73.88
2022-11-28T09:11:55.459Z,76.30
2022-11-28T09:12:58.142Z,70.78
2022-11-28T09:14:00.939Z,65.93
2022-11-28T09:15:03.824Z,65.00
2022-11-28T09:16:07.226Z,66.50
2022-11-28T09:17:10.052Z,64.88
2022-11-28T09:18:14.270Z,71.43
2022-11-28T09:19:17.046Z,65.25
2022-11-28T09:20:21.297Z,68.95
2022-11-28T09:21:23.975Z,67.80
2022-11-28T09:22:29.570Z,61.33
2022-11-28T09:23:32.290Z,66.70
2022-11-28T09:24:34.964Z,67.68
2022-11-28T09:25:38.873Z,68.35
2022-11-28T09:26:42.547Z,63.78
2022-11-28T09:27:45.203Z,69.85
2022-11-28T09:28:48.232Z,76.20
2022-11-28T09:29:50.939Z,64.75
2022-11-28T09:31:00.581Z,63.45
2022-11-28T09:32:03.556Z,70.32
2022-11-28T09:33:06.978Z,64.35
2022-11-28T09:34:09.612Z,74.18
2022-11-28T09:35:12.477Z,66.97
2022-11-28T09:36:20.795Z,65.07
2022-11-28T09:37:23.630Z,66.00
2022-11-28T09:38:26.527Z,58.50
2022-11-28T09:39:39.599Z,61.05
2022-11-28T09:40:52.210Z,57.45
2022-11-28T09:42:15.501Z,63.10
2022-11-28T09:43:30.730Z,62.75
2022-11-28T09:44:45.489Z,60.33
2022-11-28T09:45:51.031Z,60.45
2022-11-28T09:46:58.214Z,63.15
2022-11-28T09:48:18.187Z,65.80
2022-11-28T09:49:23.684Z,72.00
2022-11-28T09:50:30.895Z,61.53
2022-11-28T09:51:54.372Z,64.03
2022-11-28T09:53:22.529Z,58.83
2022-11-28T09:54:44.929Z,67.32
2022-11-28T09:55:51.194Z,62.78
2022-11-28T09:56:53.874Z,57.35
2022-11-28T09:57:56.614Z,61.60
2022-11-28T09:59:03.337Z,61.15
2022-11-28T10:00:11.934Z,50.03
2022-11-28T10:01:40.477Z,62.90
2022-11-28T10:03:09.262Z,60.20
2022-11-28T10:04:31.243Z,58.20
2022-11-28T10:05:42.700Z,59.47
2022-11-28T10:06:57.854Z,60.65
2022-11-28T10:08:24.898Z,56.65
2022-11-28T10:10:05.307Z,57.72
2022-11-28T10:11:26.495Z,57.03
2022-11-28T10:13:07.228Z,55.35
2022-11-28T10:14:44.200Z,54.28
2022-11-28T10:15:59.805Z,55.92
2022-11-28T10:17:17.397Z,59.20
2022-11-28T10:18:31.935Z,53.05
2022-11-28T10:19:53.913Z,58.55
2022-11-28T10:21:02.923Z,63.13
2022-11-28T10:22:09.958Z,58.80
2022-11-28T10:23:23.215Z,58.92
2022-11-28T10:24:38.589Z,55.10
2022-11-28T10:25:50.209Z,53.00
2022-11-28T10:26:59.219Z,57.90
2022-11-28T10:28:04.808Z,53.22
2022-11-28T10:29:51.660Z,55.88
2022-11-28T10:31:01.217Z,51.78
2022-11-28T10:32:04.651Z,55.28
2022-11-28T10:33:25.839Z,55.15
2022-11-28T10:34:42.066Z,52.13
2022-11-28T10:35:56.768Z,52.00
2022-11-28T10:37:02.432Z,47.10
2022-11-28T10:38:11.807Z,55.38
2022-11-28T10:39:15.110Z,51.42
2022-11-28T10:40:38.129Z,53.80
2022-11-28T10:42:11.678Z,49.50
2022-11-28T10:43:29.565Z,55.33
2022-11-28T10:44:39.048Z,52.30
2022-11-28T10:45:59.575Z,55.97
2022-11-28T10:47:22.311Z,44.60
2022-11-28T10:48:40.070Z,50.50
2022-11-28T10:50:02.361Z,49.72
2022-11-28T10:51:23.873Z,50.42
2022-11-28T10:52:46.484Z,50.83
2022-11-28T10:54:07.004Z,41.55
2022-11-28T10:55:18.659Z,47.13
2022-11-28T10:56:45.156Z,47.75
2022-11-28T10:57:47.698Z,45.72
2022-11-28T10:59:14.625Z,52.00
2022-11-28T11:00:18.571Z,50.00
2022-11-28T11:01:21.891Z,44.88
2022-11-28T11:02:52.155Z,51.72
2022-11-28T11:03:54.712Z,49.23
2022-11-28T11:04:57.642Z,45.72
2022-11-28T11:06:00.778Z,47.00
2022-11-28T11:07:16.177Z,49.05
2022-11-28T11:08:26.658Z,47.08
2022-11-28T11:09:29.534Z,55.22
2022-11-28T11:10:38.267Z,48.90
2022-11-28T11:11:55.410Z,50.22
2022-11-28T11:12:59.167Z,48.20
2022-11-28T11:14:07.581Z,49.28
2022-11-28T11:15:29.976Z,52.75
2022-11-28T11:16:52.491Z,46.85
2022-11-28T11:17:55.460Z,47.15
2022-11-28T11:18:58.146Z,49.20
2022-11-28T11:20:01.342Z,44.78
2022-11-28T11:21:11.748Z,44.58
2022-11-28T11:22:23.114Z,46.97
2022-11-28T11:23:25.827Z,39.45
2022-11-28T11:24:28.994Z,44.22
2022-11-28T11:25:32.861Z,46.22
2022-11-28T11:26:39.186Z,45.80
2022-11-28T11:27:53.010Z,44.00
2022-11-28T11:28:56.777Z,48.15
2022-11-28T11:29:59.650Z,46.80
2022-11-28T11:31:05.267Z,40.63
2022-11-28T11:32:21.782Z,41.17
2022-11-28T11:33:26.935Z,50.15
2022-11-28T11:34:43.146Z,46.95
2022-11-28T11:35:48.791Z,45.78
2022-11-28T11:36:51.656Z,43.92
2022-11-28T11:38:14.292Z,54.50
2022-11-28T11:39:21.449Z,44.28
2022-11-28T11:40:27.752Z,49.28
2022-11-28T11:41:31.483Z,44.85
2022-11-28T11:42:34.172Z,45.92
2022-11-28T11:43:36.903Z,44.38
2022-11-28T11:44:39.525Z,47.42
2022-11-28T11:45:42.324Z,44.90
2022-11-28T11:47:05.434Z,46.65
2022-11-28T11:48:11.985Z,49.92
2022-11-28T11:49:28.691Z,46.67
2022-11-28T11:50:33.182Z,44.97
2022-11-28T11:51:59.520Z,47.47
2022-11-28T11:53:03.058Z,42.58
2022-11-28T11:54:16.923Z,44.80
2022-11-28T11:55:19.661Z,48.33
2022-11-28T11:56:22.282Z,44.60
2022-11-28T11:57:37.259Z,41.85
2022-11-28T11:58:51.690Z,41.28
2022-11-28T12:00:07.639Z,44.85
2022-11-28T12:01:18.168Z,42.83
2022-11-28T12:02:35.910Z,44.28
2022-11-28T12:04:08.387Z,39.72
2022-11-28T12:05:21.514Z,37.00
2022-11-28T12:06:34.737Z,39.70
2022-11-28T12:08:12.529Z,37.05
2022-11-28T12:09:32.037Z,38.20
2022-11-28T12:10:37.866Z,40.05
2022-11-28T12:11:46.894Z,40.97
2022-11-28T12:12:50.550Z,46.45
2022-11-28T12:13:53.447Z,42.30
2022-11-28T12:14:56.553Z,41.20
2022-11-28T12:16:20.439Z,51.20
2022-11-28T12:17:58.861Z,50.38
2022-11-28T12:19:10.477Z,42.40
2022-11-28T12:20:48.447Z,45.20
2022-11-28T12:22:03.084Z,44.28
2022-11-28T12:23:29.756Z,46.83
2022-11-28T12:24:53.323Z,43.22
2022-11-28T12:26:10.116Z,49.03
2022-11-28T12:27:34.269Z,52.10
2022-11-28T12:29:01.973Z,44.90
2022-11-28T12:30:26.211Z,54.13
2022-11-28T12:31:42.120Z,46.20
2022-11-28T12:32:57.104Z,44.15
2022-11-28T12:34:50.794Z,44.30
2022-11-28T12:36:07.867Z,41.58
2022-11-28T12:37:55.251Z,44.13
2022-11-28T12:39:12.755Z,45.45
2022-11-28T12:40:44.712Z,53.85
2022-11-28T12:42:09.364Z,47.10
2022-11-28T12:43:14.663Z,44.70
2022-11-28T12:45:12.577Z,48.00
2022-11-28T12:46:18.430Z,48.95
2022-11-28T12:47:24.089Z,47.45
2022-11-28T12:48:53.654Z,47.38
2022-11-28T12:50:08.562Z,38.33
2022-11-28T12:51:17.327Z,39.75
2022-11-28T12:52:40.271Z,40.75
2022-11-28T12:54:10.389Z,49.05
2022-11-28T12:55:24.776Z,38.65
2022-11-28T12:57:00.245Z,41.35
2022-11-28T12:58:06.903Z,43.13
2022-11-28T12:59:31.502Z,39.15
2022-11-28T13:00:40.168Z,45.10
2022-11-28T13:02:29.736Z,38.17
2022-11-28T13:03:41.546Z,35.20
2022-11-28T13:05:24.119Z,41.42
2022-11-28T13:06:38.269Z,35.35
2022-11-28T13:08:14.830Z,42.08
2022-11-28T13:09:44.106Z,38.75
2022-11-28T13:11:07.814Z,40.85
2022-11-28T13:12:38.765Z,37.92
2022-11-28T13:14:05.104Z,34.85
2022-11-28T13:15:21.274Z,42.75
2022-11-28T13:16:29.584Z,39.90
2022-11-28T13:17:44.280Z,38.88
2022-11-28T13:19:10.187Z,41.70
2022-11-28T13:20:43.473Z,42.17
2022-11-28T13:22:12.646Z,39.33
2022-11-28T13:23:24.584Z,38.80
2022-11-28T13:25:07.397Z,44.40
2022-11-28T13:26:18.477Z,41.85
2022-11-28T13:27:32.520Z,43.28
2022-11-28T13:29:13.066Z,52.20
2022-11-28T13:30:22.540Z,45.33
2022-11-28T13:31:28.372Z,44.72
2022-11-28T13:32:40.408Z,55.22
2022-11-28T13:33:48.573Z,44.55
2022-11-28T13:34:51.602Z,50.80
2022-11-28T13:35:54.439Z,46.25
2022-11-28T13:39:11.401Z,48.63
2022-11-28T13:40:19.454Z,45.20
2022-11-28T13:42:06.413Z,47.95
2022-11-28T13:43:10.241Z,48.17
2022-11-28T13:44:35.235Z,48.65
2022-11-28T13:45:44.662Z,47.88
2022-11-28T13:46:51.606Z,44.35
2022-11-28T13:47:55.724Z,50.60
2022-11-28T13:49:14.766Z,44.72
2022-11-28T13:50:37.246Z,53.15
2022-11-28T13:51:39.939Z,51.80
2022-11-28T13:52:43.505Z,51.60
2022-11-28T13:53:47.339Z,54.60
2022-11-28T13:54:50.073Z,52.83
2022-11-28T13:56:07.824Z,50.92
2022-11-28T13:57:21.950Z,54.67
2022-11-28T13:58:44.459Z,61.00
2022-11-28T13:59:56.386Z,52.90
2022-11-28T14:01:09.171Z,52.22
2022-11-28T14:02:45.063Z,52.63
2022-11-28T14:04:07.814Z,48.45
2022-11-28T14:05:32.384Z,52.33
2022-11-28T14:06:40.801Z,51.35
2022-11-28T14:07:47.792Z,53.88
2022-11-28T14:09:06.822Z,40.80
2022-11-28T14:10:24.450Z,46.00
2022-11-28T14:11:46.558Z,50.72
2022-11-28T14:13:09.789Z,52.35
2022-11-28T14:14:19.229Z,47.63
2022-11-28T14:15:26.835Z,42.72
2022-11-28T14:16:51.700Z,43.92
2022-11-28T14:18:48.023Z,44.63
2022-11-28T14:19:46.529Z,45.00
2022-11-28T14:20:57.672Z,43.28
2022-11-28T14:22:24.393Z,54.08
2022-11-28T14:23:34.818Z,41.03
2022-11-28T14:25:04.225Z,45.75
2022-11-28T14:26:27.560Z,47.72
2022-11-28T14:27:34.235Z,40.92
2022-11-28T14:28:40.212Z,44.10
2022-11-28T14:29:47.986Z,41.13
2022-11-28T14:30:51.653Z,45.08
2022-11-28T14:32:27.941Z,41.42
2022-11-28T14:33:56.570Z,36.80
2022-11-28T14:36:24.018Z,41.55
2022-11-28T14:37:29.303Z,39.40
2022-11-28T14:38:33.626Z,41.75
2022-11-28T14:39:36.505Z,42.50
2022-11-28T14:40:56.854Z,42.78
2022-11-28T14:42:05.759Z,39.72
2022-11-28T14:43:33.949Z,39.58
2022-11-28T14:44:50.667Z,44.35
2022-11-28T14:46:17.841Z,42.97
2022-11-28T14:47:35.030Z,42.00
2022-11-28T14:48:42.223Z,40.83
2022-11-28T14:49:44.992Z,45.97
2022-11-28T14:50:53.406Z,37.88
2022-11-28T14:52:46.223Z,40.67
2022-11-28T14:53:44.732Z,40.47
2022-11-28T14:54:49.517Z,43.95
2022-11-28T14:55:52.349Z,46.50
2022-11-28T14:56:59.779Z,42.40
2022-11-28T14:58:05.290Z,39.80
2022-11-28T14:59:10.767Z,38.92
2022-11-28T15:00:23.032Z,39.92
2022-11-28T15:01:29.308Z,39.88
2022-11-28T15:03:16.654Z,38.80